Time;durP1;ratioP1;P1;durP2;ratioP2;P2;SDS_P1;SDS_P2;PMS_P1;PMS_P2;Temp;Humidity;BMP_temperature;BMP_pressure;BME280_temperature;BME280_humidity;BME280_pressure;Samples;Min_cycle;Max_cycle;Signal;HPM_P1;HPM_P2
2023/10/12 00:02:04;;;;;;;5.53;1.73;;;16.90;80.10;;;;;;5039428;28;20036;-85
2023/10/12 00:04:37;;;;;;;3.97;1.40;;;16.80;80.10;;;;;;5051442;28;20055;-85
2023/10/12 00:07:10;;;;;;;5.25;1.45;;;16.80;80.20;;;;;;5045534;28;20048;-85
2023/10/12 00:09:36;;;;;;;7.60;1.67;;;16.80;80.20;;;;;;5017425;28;20041;-85
2023/10/12 00:12:07;;;;;;;3.65;1.35;;;16.70;80.10;;;;;;5065233;28;20409;-85
2023/10/12 00:14:34;;;;;;;5.05;1.40;;;16.70;80.00;;;;;;5065811;28;20048;-85
2023/10/12 00:17:00;;;;;;;4.82;1.75;;;16.80;80.10;;;;;;5065632;28;20044;-85
2023/10/12 00:19:27;;;;;;;4.88;1.75;;;16.70;80.20;;;;;;5032650;28;20045;-85
2023/10/12 00:22:03;;;;;;;4.35;1.50;;;16.70;80.30;;;;;;5054021;28;20402;-85
2023/10/12 00:24:30;;;;;;;5.55;1.52;;;16.70;80.40;;;;;;5031696;28;20045;-85
2023/10/12 00:26:58;;;;;;;5.75;1.58;;;16.70;80.90;;;;;;5032429;28;20398;-85
2023/10/12 00:29:23;;;;;;;3.28;1.45;;;16.70;80.60;;;;;;5066419;28;20037;-85
2023/10/12 00:31:50;;;;;;;4.93;1.85;;;16.90;80.80;;;;;;5033396;28;20039;-85
2023/10/12 00:34:16;;;;;;;4.97;1.80;;;16.70;80.60;;;;;;5062581;28;20138;-85
2023/10/12 00:36:45;;;;;;;4.28;1.50;;;16.60;80.60;;;;;;5055729;28;20041;-84
2023/10/12 00:39:11;;;;;;;3.78;1.42;;;16.70;80.80;;;;;;5082225;28;20036;-85
2023/10/12 00:41:44;;;;;;;3.95;1.40;;;16.60;81.20;;;;;;5076969;28;20021;-85
2023/10/12 00:44:12;;;;;;;6.22;1.48;;;16.70;80.90;;;;;;5057058;28;20417;-85
2023/10/12 00:46:58;;;;;;;5.82;1.20;;;16.70;80.90;;;;;;5037152;28;20036;-85
2023/10/12 00:49:27;;;;;;;5.57;1.65;;;16.60;80.90;;;;;;5054353;28;20044;-85
2023/10/12 00:52:08;;;;;;;5.07;1.60;;;16.60;80.90;;;;;;5056315;28;20115;-86
2023/10/12 00:57:05;;;;;;;5.60;1.30;;;16.70;81.00;;;;;;5036207;28;20131;-85
2023/10/12 00:59:32;;;;;;;3.22;0.90;;;16.60;80.90;;;;;;5036238;28;20132;-85
2023/10/12 01:02:15;;;;;;;4.93;1.50;;;16.60;80.90;;;;;;5028484;28;20084;-85
2023/10/12 01:04:41;;;;;;;3.60;1.05;;;16.60;80.90;;;;;;5038906;28;20033;-85
2023/10/12 01:07:10;;;;;;;7.10;1.48;;;16.60;81.00;;;;;;5040022;28;20035;-86
2023/10/12 01:09:43;;;;;;;4.47;1.30;;;16.60;81.00;;;;;;5049942;28;20037;-85
2023/10/12 01:12:17;;;;;;;8.10;2.38;;;16.60;81.00;;;;;;5020076;28;20056;-85
2023/10/12 01:14:45;;;;;;;4.93;1.23;;;16.60;81.00;;;;;;5051628;28;20044;-85
2023/10/12 01:17:17;;;;;;;3.53;1.20;;;16.70;81.00;;;;;;5053906;28;20047;-86
2023/10/12 01:19:46;;;;;;;4.68;1.50;;;16.70;81.10;;;;;;5032956;28;20045;-85
2023/10/12 01:22:15;;;;;;;4.38;1.30;;;16.70;81.10;;;;;;5069422;28;20040;-85
2023/10/12 01:25:11;;;;;;;5.40;1.33;;;16.50;81.00;;;;;;5065716;28;20047;-85
2023/10/12 01:27:31;;;;;;;5.13;1.58;;;16.50;81.00;;;;;;5066134;28;20052;-85
2023/10/12 01:30:18;;;;;;;4.78;1.30;;;16.50;81.00;;;;;;5043236;28;20496;-86
2023/10/12 01:32:44;;;;;;;5.13;1.30;;;16.50;81.00;;;;;;5055331;28;20037;-85
2023/10/12 01:35:12;;;;;;;6.38;1.70;;;16.50;81.00;;;;;;5055104;28;20496;-85
2023/10/12 01:37:55;;;;;;;3.75;1.23;;;16.60;81.00;;;;;;5052735;28;20056;-85
2023/10/12 01:40:24;;;;;;;3.77;1.40;;;16.50;81.00;;;;;;5054229;28;20051;-85
2023/10/12 01:42:50;;;;;;;5.45;1.40;;;16.50;81.00;;;;;;5053142;28;20477;-85
2023/10/12 01:47:54;;;;;;;3.55;1.13;;;16.50;81.00;;;;;;5055023;28;20401;-85
2023/10/12 01:50:20;;;;;;;6.00;1.63;;;16.40;80.90;;;;;;5044591;28;20112;-85
2023/10/12 01:52:47;;;;;;;6.30;1.25;;;16.50;81.00;;;;;;5034557;28;20129;-85
2023/10/12 01:55:18;;;;;;;4.35;1.45;;;16.40;80.90;;;;;;5065363;28;20036;-85
2023/10/12 01:57:49;;;;;;;4.32;1.20;;;16.40;80.90;;;;;;5025803;28;20064;-86
2023/10/12 02:00:15;;;;;;;5.95;1.20;;;16.40;80.90;;;;;;5059120;28;20040;-85
2023/10/12 02:02:50;;;;;;;5.78;1.55;;;16.40;80.80;;;;;;5057809;28;20175;-85
2023/10/12 02:05:24;;;;;;;6.13;1.23;;;16.70;81.00;;;;;;5054451;28;20037;-85
2023/10/12 02:07:52;;;;;;;7.80;1.75;;;16.40;80.80;;;;;;5046937;28;20090;-85
2023/10/12 02:10:18;;;;;;;5.13;1.67;;;16.40;80.80;;;;;;5054798;28;20032;-85
2023/10/12 02:12:45;;;;;;;4.03;1.30;;;16.30;80.70;;;;;;5054273;28;20075;-85
2023/10/12 02:15:15;;;;;;;4.03;1.33;;;16.30;80.70;;;;;;5037593;28;20520;-85
2023/10/12 02:17:42;;;;;;;5.00;1.58;;;16.30;80.80;;;;;;5033280;28;20040;-85
2023/10/12 02:20:11;;;;;;;3.55;1.35;;;16.30;80.80;;;;;;5033990;28;20052;-85
2023/10/12 02:22:37;;;;;;;3.33;1.20;;;16.30;80.80;;;;;;5050446;28;20044;-85
2023/10/12 02:25:27;;;;;;;5.57;1.35;;;16.30;80.80;;;;;;5067076;28;20397;-85
2023/10/12 02:27:55;;;;;;;6.95;1.52;;;16.30;80.80;;;;;;5051263;28;20416;-85
2023/10/12 02:30:27;;;;;;;4.63;1.17;;;16.30;80.90;;;;;;5054082;28;20037;-85
2023/10/12 02:33:00;;;;;;;4.90;1.08;;;16.30;80.90;;;;;;5053796;28;20117;-85
2023/10/12 02:35:36;;;;;;;5.43;1.40;;;16.30;80.90;;;;;;5053435;28;20129;-85
2023/10/12 02:38:07;;;;;;;4.30;1.20;;;16.30;80.90;;;;;;5019729;28;20067;-85
2023/10/12 02:40:33;;;;;;;8.27;2.08;;;16.30;80.90;;;;;;5056387;28;20056;-85
2023/10/12 02:42:59;;;;;;;7.50;1.42;;;16.20;80.90;;;;;;5017573;28;20460;-85
2023/10/12 02:45:28;;;;;;;5.13;1.42;;;16.20;80.90;;;;;;5034156;28;20099;-86
2023/10/12 02:47:54;;;;;;;5.10;1.30;;;16.20;80.90;;;;;;5044314;28;20438;-85
2023/10/12 02:50:27;;;;;;;6.22;1.65;;;16.20;80.90;;;;;;5052989;28;20570;-84
2023/10/12 02:52:53;;;;;;;5.47;1.35;;;16.20;80.80;;;;;;5052824;28;20064;-85
2023/10/12 02:57:54;;;;;;;5.10;1.55;;;16.20;80.90;;;;;;5038718;28;20057;-85
2023/10/12 03:03:06;;;;;;;5.88;1.95;;;16.10;80.70;;;;;;5033334;28;20045;-85
2023/10/12 03:05:44;;;;;;;4.18;1.65;;;16.10;80.80;;;;;;5059600;28;20036;-85
2023/10/12 03:08:14;;;;;;;6.05;1.40;;;16.10;80.80;;;;;;5050977;28;20049;-85
2023/10/12 03:10:55;;;;;;;8.25;1.95;;;16.10;80.80;;;;;;5036462;28;20047;-85
2023/10/12 03:13:25;;;;;;;5.40;1.35;;;16.10;80.80;;;;;;5053367;28;20033;-85
2023/10/12 03:15:59;;;;;;;4.53;1.58;;;16.10;80.80;;;;;;5053243;28;20045;-85
2023/10/12 03:18:27;;;;;;;5.18;1.50;;;16.10;80.80;;;;;;5052029;28;20083;-85
2023/10/12 03:21:14;;;;;;;6.00;2.13;;;16.00;80.80;;;;;;5053054;28;20044;-85
2023/10/12 03:23:46;;;;;;;4.97;1.33;;;16.10;80.90;;;;;;5053324;28;20039;-85
2023/10/12 03:26:18;;;;;;;4.65;1.40;;;16.00;80.80;;;;;;5037696;28;20119;-85
2023/10/12 03:28:46;;;;;;;6.03;1.40;;;16.00;80.90;;;;;;5041854;28;20056;-85
2023/10/12 03:31:18;;;;;;;3.83;1.48;;;16.20;81.00;;;;;;5058491;28;20033;-84
2023/10/12 03:33:53;;;;;;;7.35;2.10;;;16.00;80.90;;;;;;5043814;28;20054;-85
2023/10/12 03:36:23;;;;;;;;;;;16.00;80.90;;;;;;5058089;28;20113;-85
2023/10/12 03:41:55;;;;;;;4.63;1.48;;;16.00;81.00;;;;;;5020059;28;20048;-85
2023/10/12 03:52:19;;;;;;;6.57;1.80;;;16.00;81.20;;;;;;5052993;28;20524;-85
2023/10/12 04:02:39;;;;;;;5.60;1.58;;;15.90;81.20;;;;;;5032776;28;20045;-85
2023/10/12 04:05:21;;;;;;;6.82;2.22;;;16.00;81.30;;;;;;5032951;28;20052;-85
2023/10/12 04:13:08;;;;;;;4.80;1.55;;;15.90;81.20;;;;;;5058828;28;20044;-85
2023/10/12 04:18:18;;;;;;;4.50;1.30;;;15.90;81.30;;;;;;5054772;28;20048;-85
2023/10/12 04:20:45;;;;;;;4.30;1.60;;;15.90;81.30;;;;;;5037508;28;20037;-85
2023/10/12 04:26:09;;;;;;;5.68;2.03;;;15.90;81.40;;;;;;5055715;28;20106;-85
2023/10/12 04:28:35;;;;;;;5.75;2.00;;;15.90;81.40;;;;;;5036950;28;20052;-85
2023/10/12 04:33:43;;;;;;;6.35;1.95;;;15.80;81.40;;;;;;5036508;28;20158;-86
2023/10/12 04:43:52;;;;;;;7.60;2.30;;;15.80;81.50;;;;;;5036229;28;20370;-84
2023/10/12 04:46:26;;;;;;;5.25;1.63;;;15.90;81.50;;;;;;5019043;28;20053;-84
2023/10/12 04:49:29;;;;;;;5.03;1.40;;;15.90;81.50;;;;;;5036091;28;20048;-84
2023/10/12 04:51:59;;;;;;;8.07;1.73;;;15.90;81.50;;;;;;5035540;28;20056;-85
2023/10/12 04:54:25;;;;;;;5.55;1.52;;;15.80;81.40;;;;;;5035663;28;20554;-86
2023/10/12 04:59:42;;;;;;;4.03;1.33;;;15.80;81.50;;;;;;5054995;28;20044;-85
2023/10/12 05:09:49;;;;;;;4.90;1.50;;;15.80;81.50;;;;;;5035772;28;20049;-85
2023/10/12 05:12:20;;;;;;;3.80;1.40;;;15.80;81.50;;;;;;5068762;28;20503;-84
2023/10/12 05:14:46;;;;;;;6.05;1.50;;;15.80;81.50;;;;;;5035700;28;20365;-85
2023/10/12 05:17:12;;;;;;;3.63;1.55;;;15.90;81.50;;;;;;5069362;28;20041;-84
2023/10/12 05:19:37;;;;;;;4.10;1.33;;;15.80;81.40;;;;;;5035273;28;20167;-85
2023/10/12 05:22:03;;;;;;;3.83;1.27;;;15.80;81.30;;;;;;5019145;28;20044;-84
2023/10/12 05:24:29;;;;;;;4.65;1.80;;;15.80;81.30;;;;;;5054881;28;20119;-83
2023/10/12 05:27:07;;;;;;;3.33;1.20;;;15.80;81.30;;;;;;5055842;28;20045;-83
2023/10/12 05:29:38;;;;;;;6.75;1.50;;;15.80;81.30;;;;;;5042782;28;20063;-82
2023/10/12 05:32:18;;;;;;;4.82;1.65;;;15.80;81.40;;;;;;5036588;28;20154;-83
2023/10/12 05:34:46;;;;;;;5.72;1.48;;;15.80;81.30;;;;;;5038994;28;20046;-83
2023/10/12 05:39:46;;;;;;;3.83;1.25;;;15.80;81.30;;;;;;5073336;28;20048;-83
2023/10/12 05:42:14;;;;;;;;;;;15.70;81.20;;;;;;5054690;28;20036;-83
2023/10/12 05:44:43;;;;;;;4.38;1.40;;;15.70;81.00;;;;;;5055816;28;20383;-84
2023/10/12 05:47:12;;;;;;;4.68;1.52;;;15.90;81.40;;;;;;5054935;28;20554;-84
2023/10/12 05:49:41;;;;;;;4.72;1.83;;;16.00;81.40;;;;;;5038516;28;20370;-84
2023/10/12 05:52:08;;;;;;;4.13;1.23;;;15.70;81.30;;;;;;5040525;28;20512;-83
2023/10/12 05:54:40;;;;;;;5.20;1.38;;;15.70;81.20;;;;;;5034880;28;20037;-83
2023/10/12 05:57:29;;;;;;;4.75;1.38;;;15.60;81.10;;;;;;5034772;28;20029;-83
2023/10/12 05:59:58;;;;;;;5.40;1.95;;;15.60;81.10;;;;;;5018208;28;20089;-83
2023/10/12 06:02:25;;;;;;;6.20;1.60;;;15.70;81.20;;;;;;5021778;28;20037;-83
2023/10/12 06:04:51;;;;;;;4.70;1.58;;;15.70;81.10;;;;;;5043303;28;20033;-83
2023/10/12 06:07:16;;;;;;;5.75;1.95;;;15.60;81.10;;;;;;5034784;28;20170;-83
2023/10/12 06:09:42;;;;;;;5.35;1.40;;;15.60;81.10;;;;;;5035564;28;20040;-83
2023/10/12 06:12:12;;;;;;;4.28;1.52;;;15.60;81.10;;;;;;5035762;28;20041;-83
2023/10/12 06:14:39;;;;;;;7.47;2.05;;;15.60;81.10;;;;;;5018408;28;20133;-83
2023/10/12 06:17:06;;;;;;;5.20;1.73;;;15.50;81.00;;;;;;5047307;28;20024;-84
2023/10/12 06:19:35;;;;;;;3.47;1.40;;;15.60;81.10;;;;;;5058328;28;20040;-83
2023/10/12 06:22:13;;;;;;;3.85;1.30;;;15.50;81.00;;;;;;5056898;28;20041;-83
2023/10/12 06:24:43;;;;;;;4.13;1.23;;;15.50;81.00;;;;;;5052839;28;20119;-83
2023/10/12 06:29:51;;;;;;;5.03;1.95;;;15.90;81.40;;;;;;5035248;28;20497;-83
2023/10/12 06:32:19;;;;;;;3.58;1.20;;;15.50;81.10;;;;;;5054011;28;20036;-83
2023/10/12 06:35:34;;;;;;;5.13;1.95;;;15.50;81.20;;;;;;5054163;28;20047;-83
2023/10/12 06:45:48;;;;;;;5.10;1.58;;;15.50;81.40;;;;;;5054976;28;20397;-84
2023/10/12 06:51:03;;;;;;;4.30;1.48;;;15.50;81.60;;;;;;5053995;28;20480;-84
2023/10/12 06:53:36;;;;;;;5.70;1.63;;;15.50;81.60;;;;;;5054296;28;20190;-84
2023/10/12 06:58:40;;;;;;;4.88;1.85;;;15.40;81.70;;;;;;5054441;28;20401;-84
2023/10/12 07:01:18;;;;;;;5.18;1.83;;;15.50;81.80;;;;;;5031035;28;20044;-83
2023/10/12 07:03:48;;;;;;;7.28;2.20;;;15.50;81.80;;;;;;5025458;28;20040;-83
2023/10/12 07:06:15;;;;;;;6.65;2.00;;;15.50;81.90;;;;;;5033370;28;20584;-84
2023/10/12 07:08:42;;;;;;;7.40;2.72;;;15.50;82.00;;;;;;5033419;28;20041;-84
2023/10/12 07:11:11;;;;;;;5.93;2.40;;;15.50;82.00;;;;;;5033179;28;20090;-84
2023/10/12 07:13:41;;;;;;;4.25;1.90;;;15.50;82.10;;;;;;5033258;28;20056;-84
2023/10/12 07:16:15;;;;;;;9.43;2.42;;;15.50;82.20;;;;;;5017024;28;20049;-84
2023/10/12 07:18:43;;;;;;;5.90;2.45;;;15.50;82.30;;;;;;5033591;28;20085;-84
2023/10/12 07:21:20;;;;;;;5.20;2.50;;;15.50;82.40;;;;;;5051144;28;20052;-84
2023/10/12 07:23:53;;;;;;;6.57;2.53;;;15.70;82.60;;;;;;5051163;28;20032;-84
2023/10/12 07:26:19;;;;;;;9.02;2.40;;;15.60;82.50;;;;;;5032954;28;20060;-84
2023/10/12 07:28:49;;;;;;;5.47;1.83;;;15.60;82.40;;;;;;5032880;28;20580;-84
2023/10/12 07:39:27;;;;;;;7.78;1.92;;;15.70;82.00;;;;;;5052252;28;20048;-84
2023/10/12 07:42:36;;;;;;;9.48;1.83;;;15.70;81.80;;;;;;5052654;28;20044;-84
2023/10/12 07:47:19;;;;;;;7.03;2.42;;;15.80;81.20;;;;;;5052266;28;20105;-84
2023/10/12 07:49:49;;;;;;;10.07;1.80;;;15.80;80.90;;;;;;5052514;28;20040;-84
2023/10/12 07:57:19;;;;;;;6.03;2.67;;;16.00;80.20;;;;;;5052625;28;20051;-84
2023/10/12 08:02:51;;;;;;;8.30;1.70;;;16.00;80.00;;;;;;5050182;28;20553;-84
2023/10/12 08:10:48;;;;;;;7.43;1.33;;;16.20;80.10;;;;;;5052486;28;20049;-85
2023/10/12 08:19:23;;;;;;;4.72;1.17;;;16.20;79.50;;;;;;5052531;28;20045;-85
2023/10/12 08:21:42;;;;;;;6.85;1.52;;;16.20;79.30;;;;;;5052581;28;20221;-85
2023/10/12 08:31:48;;;;;;;6.95;1.55;;;16.40;79.10;;;;;;5050373;28;20048;-84
2023/10/12 08:39:38;;;;;;;7.57;1.70;;;16.40;78.90;;;;;;5033162;28;20127;-85
2023/10/12 08:42:36;;;;;;;5.20;1.50;;;16.50;78.80;;;;;;5033630;28;20489;-85
2023/10/12 08:45:15;;;;;;;7.90;1.75;;;16.50;78.60;;;;;;5033310;28;20045;-84
2023/10/12 08:47:49;;;;;;;5.65;1.45;;;16.50;78.50;;;;;;5050442;28;20036;-88
2023/10/12 08:50:47;;;;;;;7.32;2.45;;;16.50;78.30;;;;;;5055018;28;20314;-88
2023/10/12 08:53:04;;;;;;;8.55;2.03;;;16.50;78.10;;;;;;5055940;28;20048;-89
2023/10/12 08:55:31;;;;;;;6.97;1.65;;;16.50;78.00;;;;;;5056466;28;20055;-88
2023/10/12 08:58:24;;;;;;;6.65;1.10;;;16.60;77.60;;;;;;5042672;28;20062;-89
2023/10/12 09:01:23;;;;;;;9.02;1.90;;;16.50;76.90;;;;;;5035256;28;20094;-89
2023/10/12 09:03:38;;;;;;;6.85;1.90;;;16.50;76.60;;;;;;5047848;28;20108;-90
2023/10/12 09:06:19;;;;;;;6.80;2.03;;;16.50;76.10;;;;;;5050752;28;20041;-90
2023/10/12 09:08:46;;;;;;;8.10;1.55;;;16.80;76.10;;;;;;5049997;28;20060;-91
2023/10/12 09:13:38;;;;;;;8.30;2.25;;;16.60;75.80;;;;;;5062373;28;20072;-89
2023/10/12 09:16:15;;;;;;;6.00;2.40;;;16.60;75.20;;;;;;5058631;28;20048;-89
2023/10/12 09:18:57;;;;;;;6.05;1.42;;;16.90;75.00;;;;;;5041394;28;20037;-88
2023/10/12 09:21:27;;;;;;;6.30;1.25;;;16.60;74.60;;;;;;5038802;28;20115;-89
2023/10/12 09:26:55;;;;;;;5.88;1.90;;;16.70;73.90;;;;;;5036701;28;20455;-88
2023/10/12 09:29:23;;;;;;;4.32;1.70;;;16.60;73.70;;;;;;5035044;28;20036;-88
2023/10/12 09:32:19;;;;;;;8.02;1.60;;;16.70;73.40;;;;;;5030479;28;20052;-88
2023/10/12 09:37:21;;;;;;;6.43;1.33;;;16.80;72.80;;;;;;5056128;28;20045;-88
2023/10/12 09:39:48;;;;;;;9.77;1.90;;;16.80;72.40;;;;;;5056259;28;20071;-88
2023/10/12 09:42:40;;;;;;;7.38;1.38;;;16.90;71.50;;;;;;5039707;28;20388;-88
2023/10/12 09:45:10;;;;;;;8.75;1.30;;;17.00;69.90;;;;;;5035463;28;20109;-88
2023/10/12 09:47:44;;;;;;;3.80;1.08;;;17.00;69.80;;;;;;5029522;28;20037;-88
2023/10/12 09:50:14;;;;;;;6.65;1.48;;;17.20;68.50;;;;;;5034062;28;20278;-88
2023/10/12 09:52:57;;;;;;;5.28;1.38;;;17.00;68.40;;;;;;5055813;28;20033;-88
2023/10/12 09:55:32;;;;;;;5.07;1.30;;;17.00;68.70;;;;;;5036977;28;20041;-88
2023/10/12 10:01:01;;;;;;;9.15;1.55;;;17.20;67.90;;;;;;5018020;28;20822;-88
2023/10/12 10:03:47;;;;;;;4.65;0.90;;;17.20;68.00;;;;;;5035429;28;20029;-87
2023/10/12 10:06:19;;;;;;;8.23;1.80;;;17.10;67.80;;;;;;5043813;28;20083;-88
2023/10/12 10:09:10;;;;;;;6.18;1.00;;;17.20;67.60;;;;;;5041071;28;20037;-87
2023/10/12 10:11:39;;;;;;;4.97;1.15;;;17.20;68.20;;;;;;5041503;28;20090;-87
2023/10/12 10:14:09;;;;;;;4.38;1.45;;;17.20;68.10;;;;;;5054544;28;20037;-87
2023/10/12 10:16:47;;;;;;;6.07;1.20;;;17.20;67.90;;;;;;5038552;28;20032;-88
2023/10/12 10:19:14;;;;;;;9.68;2.33;;;17.20;67.90;;;;;;5046619;28;20048;-87
2023/10/12 10:22:05;;;;;;;6.82;1.40;;;17.20;68.30;;;;;;5034425;28;20120;-88
2023/10/12 10:24:57;;;;;;;7.43;1.67;;;17.20;68.40;;;;;;5018002;28;20049;-86
2023/10/12 10:27:34;;;;;;;6.63;1.88;;;17.30;68.80;;;;;;5046158;28;20037;-86
2023/10/12 10:30:36;;;;;;;10.60;1.98;;;17.20;68.60;;;;;;5040210;28;20103;-86
2023/10/12 10:33:14;;;;;;;7.70;1.15;;;17.30;68.10;;;;;;5040872;28;20060;-86
2023/10/12 10:36:24;;;;;;;5.22;1.10;;;17.20;68.00;;;;;;5033861;28;20045;-86
2023/10/12 10:41:46;;;;;;;6.55;2.00;;;17.30;67.80;;;;;;5034164;28;20048;-86
2023/10/12 10:44:21;;;;;;;6.45;1.40;;;17.20;68.00;;;;;;5036792;28;20179;-86
2023/10/12 10:47:27;;;;;;;6.60;1.42;;;17.20;67.70;;;;;;5019834;28;20557;-87
2023/10/12 10:49:48;;;;;;;5.22;1.27;;;17.10;67.40;;;;;;5033993;28;20041;-87
2023/10/12 10:52:18;;;;;;;6.25;1.30;;;17.10;67.60;;;;;;5018211;28;20473;-87
2023/10/12 10:54:56;;;;;;;10.20;2.17;;;17.10;68.10;;;;;;5034379;28;20048;-88
2023/10/12 10:57:31;;;;;;;6.45;1.40;;;17.20;67.20;;;;;;5036928;28;20452;-87
2023/10/12 10:59:56;;;;;;;5.53;1.30;;;17.20;66.30;;;;;;5053077;28;20084;-87
2023/10/12 11:02:22;;;;;;;5.93;1.20;;;17.00;66.10;;;;;;5037094;28;20078;-87
2023/10/12 11:04:51;;;;;;;4.38;1.10;;;17.10;66.60;;;;;;5054075;28;20071;-87
2023/10/12 11:07:17;;;;;;;6.40;1.48;;;17.10;66.10;;;;;;5053935;28;20358;-87
2023/10/12 11:12:24;;;;;;;4.72;1.33;;;17.10;65.60;;;;;;5050495;28;20507;-87
2023/10/12 11:17:40;;;;;;;4.60;1.13;;;17.60;66.70;;;;;;5045175;28;20059;-87
2023/10/12 11:20:27;;;;;;;7.30;1.77;;;17.20;66.00;;;;;;5053592;28;20048;-87
2023/10/12 11:22:57;;;;;;;5.28;1.50;;;17.20;66.70;;;;;;5036508;28;20080;-87
2023/10/12 11:25:26;;;;;;;8.02;1.65;;;17.10;66.30;;;;;;5052666;28;20049;-87
2023/10/12 11:27:53;;;;;;;7.15;2.22;;;17.30;66.10;;;;;;5024611;28;20063;-88
2023/10/12 11:30:35;;;;;;;8.13;2.00;;;17.20;65.40;;;;;;5041940;28;20040;-87
2023/10/12 11:33:01;;;;;;;7.65;1.75;;;17.20;65.40;;;;;;5034593;28;20037;-87
2023/10/12 11:35:34;;;;;;;8.98;2.05;;;17.10;65.10;;;;;;5048178;28;20523;-88
2023/10/12 11:38:01;;;;;;;5.95;1.48;;;17.10;65.50;;;;;;5053323;28;20060;-88
2023/10/12 11:40:28;;;;;;;11.23;2.17;;;17.10;66.20;;;;;;5036988;28;20041;-88
2023/10/12 11:42:53;;;;;;;4.72;1.25;;;17.10;66.60;;;;;;5036924;28;20047;-88
2023/10/12 11:45:19;;;;;;;10.00;2.00;;;17.10;67.10;;;;;;5054187;28;20040;-89
2023/10/12 11:47:46;;;;;;;6.57;1.88;;;17.10;67.40;;;;;;5053595;28;20037;-88
2023/10/12 11:50:13;;;;;;;6.00;1.23;;;17.10;67.50;;;;;;5053987;28;20036;-89
2023/10/12 11:52:40;;;;;;;7.03;1.60;;;17.00;67.60;;;;;;5041158;28;20047;-89
2023/10/12 11:55:20;;;;;;;8.85;1.73;;;17.20;67.80;;;;;;5064760;28;20427;-88
2023/10/12 11:57:59;;;;;;;4.20;1.20;;;17.10;67.60;;;;;;5046393;28;20037;-88
2023/10/12 12:00:36;;;;;;;7.40;1.90;;;17.10;67.60;;;;;;5054214;28;20139;-88
2023/10/12 12:03:03;;;;;;;6.93;1.55;;;17.10;67.10;;;;;;5058910;28;20053;-88
2023/10/12 12:05:30;;;;;;;7.97;1.60;;;17.00;66.90;;;;;;5057574;28;20045;-88
2023/10/12 12:08:05;;;;;;;5.82;1.30;;;17.10;67.40;;;;;;5059509;28;20028;-88
2023/10/12 12:10:38;;;;;;;9.48;2.10;;;17.00;66.90;;;;;;5054181;28;20493;-89
2023/10/12 12:13:08;;;;;;;5.97;1.42;;;17.00;66.50;;;;;;5036964;28;20036;-88
2023/10/12 12:15:40;;;;;;;10.00;1.52;;;17.00;66.10;;;;;;5053442;28;20075;-89
2023/10/12 12:18:13;;;;;;;10.32;1.90;;;17.20;66.30;;;;;;5052924;28;20115;-86
2023/10/12 12:20:39;;;;;;;9.95;1.77;;;16.90;65.10;;;;;;5053682;28;20237;-89
2023/10/12 12:23:10;;;;;;;7.28;1.60;;;16.90;64.50;;;;;;5036792;28;20209;-89
2023/10/12 12:25:39;;;;;;;6.80;1.50;;;16.80;64.30;;;;;;5036666;28;20041;-88
2023/10/12 12:28:08;;;;;;;5.38;1.30;;;16.70;64.80;;;;;;5036495;28;20051;-88
2023/10/12 12:30:39;;;;;;;6.88;1.63;;;16.70;65.50;;;;;;5023139;28;20119;-88
2023/10/12 12:33:15;;;;;;;8.95;1.80;;;16.70;65.70;;;;;;5036950;28;20098;-88
2023/10/12 12:35:41;;;;;;;7.05;2.08;;;16.70;66.80;;;;;;5044410;28;20045;-88
2023/10/12 12:41:18;;;;;;;7.25;1.58;;;16.70;67.40;;;;;;4977387;28;20145;-89
2023/10/12 12:43:47;;;;;;;5.85;1.67;;;16.70;67.80;;;;;;4977059;28;20054;-88
2023/10/12 12:46:13;;;;;;;7.22;1.63;;;16.70;68.60;;;;;;4976159;28;20054;-88
2023/10/12 12:48:39;;;;;;;9.38;2.05;;;16.80;69.70;;;;;;4976664;28;20150;-88
2023/10/12 12:51:11;;;;;;;8.85;1.75;;;16.60;70.40;;;;;;4976176;28;20121;-88
2023/10/12 12:53:37;;;;;;;10.75;2.13;;;16.60;71.00;;;;;;4976649;28;20125;-88
2023/10/12 12:56:03;;;;;;;7.75;2.00;;;16.50;71.50;;;;;;4976404;28;20155;-88
2023/10/12 12:58:28;;;;;;;9.13;2.83;;;16.40;72.00;;;;;;4976254;28;20070;-87
2023/10/12 13:00:55;;;;;;;8.40;2.40;;;16.40;72.30;;;;;;4978785;28;20415;-87
2023/10/12 13:03:22;;;;;;;8.07;2.20;;;16.60;72.80;;;;;;4980336;28;20538;-88
2023/10/12 13:05:47;;;;;;;7.13;1.98;;;16.30;73.00;;;;;;4979140;28;20112;-88
2023/10/12 13:08:16;;;;;;;8.73;2.40;;;16.30;73.60;;;;;;4980019;28;20057;-87
2023/10/12 13:10:42;;;;;;;5.97;1.90;;;16.30;73.20;;;;;;4976737;28;20058;-88
2023/10/12 13:13:08;;;;;;;7.25;1.77;;;16.20;73.10;;;;;;4976095;28;20038;-87
2023/10/12 13:15:41;;;;;;;7.00;1.88;;;16.10;73.10;;;;;;5027272;28;20402;-87
2023/10/12 13:18:14;;;;;;;9.13;2.90;;;16.10;73.40;;;;;;5035173;28;20040;-88
2023/10/12 13:20:46;;;;;;;9.07;2.33;;;16.10;73.40;;;;;;5050798;28;20044;-88
2023/10/12 13:23:21;;;;;;;9.52;2.50;;;16.00;73.50;;;;;;5039938;28;20048;-87
2023/10/12 13:25:47;;;;;;;8.18;2.08;;;16.00;74.00;;;;;;5023417;28;20162;-86
2023/10/12 13:28:13;;;;;;;10.57;2.47;;;16.00;74.40;;;;;;5051681;28;20140;-87
2023/10/12 13:30:39;;;;;;;6.53;2.15;;;15.90;74.80;;;;;;5052536;28;20029;-87
2023/10/12 13:33:06;;;;;;;8.45;2.38;;;15.90;75.30;;;;;;5052003;28;20531;-87
2023/10/12 13:35:41;;;;;;;7.10;1.80;;;15.90;75.80;;;;;;5051804;28;20082;-87
2023/10/12 13:38:09;;;;;;;10.20;2.38;;;15.80;76.00;;;;;;5051531;28;20064;-87
2023/10/12 13:40:39;;;;;;;11.65;2.38;;;15.80;76.30;;;;;;5034771;28;20041;-88
2023/10/12 13:43:26;;;;;;;5.72;2.00;;;15.80;76.50;;;;;;5034949;28;20500;-86
2023/10/12 13:45:54;;;;;;;7.22;2.53;;;15.80;76.60;;;;;;5035259;28;20564;-86
2023/10/12 13:48:25;;;;;;;9.63;2.67;;;15.80;76.70;;;;;;5051076;28;20037;-87
2023/10/12 13:51:08;;;;;;;12.52;2.90;;;15.80;76.80;;;;;;5027596;28;20033;-88
2023/10/12 13:53:38;;;;;;;8.73;2.28;;;15.70;76.60;;;;;;5036830;28;20036;-87
2023/10/12 13:56:08;;;;;;;10.40;2.55;;;15.70;76.50;;;;;;5051649;28;20105;-87
2023/10/12 13:58:35;;;;;;;9.45;2.75;;;15.60;76.60;;;;;;5034930;28;20393;-87
2023/10/12 14:01:13;;;;;;;7.40;2.28;;;15.60;77.10;;;;;;5050946;28;20041;-88
2023/10/12 14:03:41;;;;;;;12.23;2.78;;;15.60;76.60;;;;;;5034839;28;20063;-87
2023/10/12 14:06:07;;;;;;;9.70;2.47;;;15.50;76.60;;;;;;5033916;28;20242;-87
2023/10/12 14:08:35;;;;;;;10.95;2.50;;;15.40;76.70;;;;;;5051343;28;20033;-87
2023/10/12 14:11:06;;;;;;;12.75;2.40;;;15.40;76.80;;;;;;5051221;28;20040;-87
2023/10/12 14:13:32;;;;;;;9.40;2.50;;;15.30;76.90;;;;;;5034587;28;20116;-88
2023/10/12 14:15:59;;;;;;;7.07;2.03;;;15.30;77.20;;;;;;5049730;28;20032;-88
2023/10/12 14:18:28;;;;;;;8.20;2.55;;;15.20;77.50;;;;;;5041708;28;20041;-87
2023/10/12 14:20:54;;;;;;;7.13;2.25;;;15.20;77.80;;;;;;5023012;28;20614;-87
2023/10/12 14:23:26;;;;;;;7.43;2.30;;;15.10;77.90;;;;;;5033857;28;20037;-88
2023/10/12 14:25:54;;;;;;;7.32;2.53;;;15.10;78.00;;;;;;5029031;28;20502;-87
2023/10/12 14:28:20;;;;;;;12.55;2.65;;;15.00;78.20;;;;;;5029702;28;20041;-88
2023/10/12 14:30:47;;;;;;;10.75;3.03;;;15.00;78.30;;;;;;5031365;28;20046;-88
2023/10/12 14:33:15;;;;;;;10.45;2.83;;;15.00;78.60;;;;;;5015474;28;20048;-87
2023/10/12 14:35:41;;;;;;;6.53;1.77;;;14.90;78.70;;;;;;5031764;28;20052;-88
2023/10/12 14:38:08;;;;;;;12.90;2.80;;;14.80;78.90;;;;;;5014856;28;20379;-88
2023/10/12 14:40:40;;;;;;;9.75;2.10;;;14.80;79.20;;;;;;5030778;28;20052;-87
2023/10/12 14:43:14;;;;;;;11.10;2.95;;;14.80;79.50;;;;;;5031254;28;20045;-88
2023/10/12 14:45:56;;;;;;;12.23;3.03;;;14.80;79.70;;;;;;5032391;28;20051;-87
2023/10/12 14:48:23;;;;;;;12.35;2.35;;;14.80;79.90;;;;;;5041243;28;20052;-87
2023/10/12 14:51:08;;;;;;;8.20;2.60;;;14.70;79.70;;;;;;5047147;28;20059;-88
2023/10/12 15:04:17;;;;;;;9.30;3.03;;;14.70;79.90;;;;;;6258077;22;1235734;-86
2023/10/12 15:06:43;;;;;;;9.68;3.30;;;14.50;79.90;;;;;;6257956;22;20401;-87
2023/10/12 15:09:12;;;;;;;9.43;4.15;;;14.50;80.20;;;;;;6232692;22;20322;-88
2023/10/12 15:11:38;;;;;;;10.80;3.10;;;15.00;80.70;;;;;;6231769;22;20019;-89
2023/10/12 15:14:06;;;;;;;10.32;2.65;;;14.50;80.50;;;;;;6231855;22;20011;-87
2023/10/12 15:16:31;;;;;;;9.48;3.67;;;14.40;80.70;;;;;;6230997;22;20061;-87
2023/10/12 15:18:57;;;;;;;9.57;3.05;;;14.40;80.90;;;;;;6232857;22;20011;-88
2023/10/12 15:21:23;;;;;;;11.23;3.65;;;14.40;81.20;;;;;;6234266;22;20023;-87
2023/10/12 15:23:49;;;;;;;7.85;3.33;;;14.30;81.20;;;;;;6260215;22;20023;-88
2023/10/12 15:26:16;;;;;;;8.45;4.03;;;14.40;81.30;;;;;;6231698;22;20034;-88
2023/10/12 15:28:47;;;;;;;10.02;3.20;;;14.40;81.40;;;;;;6257205;22;20014;-88
2023/10/12 15:31:13;;;;;;;9.38;3.08;;;14.30;81.50;;;;;;6257022;22;20015;-89
2023/10/12 15:33:39;;;;;;;9.60;3.92;;;14.30;81.60;;;;;;6231675;22;20033;-89
2023/10/12 15:36:07;;;;;;;8.98;4.18;;;14.20;81.60;;;;;;6256534;22;20145;-89
2023/10/12 15:38:32;;;;;;;8.45;3.13;;;14.20;81.80;;;;;;6231396;22;20429;-90
2023/10/12 15:41:02;;;;;;;8.68;4.47;;;14.20;82.00;;;;;;6231149;22;20062;-89
2023/10/12 15:43:28;;;;;;;8.27;3.70;;;14.20;82.20;;;;;;6256816;22;20601;-91